createdAt,value
2022-08-22T00:02:34.086Z,17.73
2022-08-22T00:02:49.334Z,18.30
2022-08-22T00:02:58.277Z,19.68
2022-08-22T00:03:09.332Z,19.15
2022-08-22T00:03:09.503Z,17.81
2022-08-22T00:03:12.017Z,17.83
2022-08-22T00:05:00.852Z,17.78
2022-08-22T00:08:05.262Z,17.81
2022-08-22T00:10:51.298Z,17.82
2022-08-22T00:13:37.234Z,17.68
2022-08-22T00:16:15.857Z,17.66
2022-08-22T00:18:50.959Z,17.69
2022-08-22T00:21:27.987Z,17.73
2022-08-22T00:24:26.446Z,17.75
2022-08-22T00:27:01.087Z,17.79
2022-08-22T00:29:39.382Z,17.81
2022-08-22T00:32:33.409Z,17.75
2022-08-22T00:35:17.559Z,17.77
2022-08-22T00:37:53.092Z,17.73
2022-08-22T00:40:42.473Z,17.70
2022-08-22T00:43:22.958Z,17.66
2022-08-22T00:46:04.480Z,17.55
2022-08-22T00:48:34.031Z,17.53
2022-08-22T00:51:42.246Z,17.56
2022-08-22T00:54:47.884Z,17.61
2022-08-22T00:57:30.848Z,17.66
2022-08-22T01:00:09.352Z,17.66
2022-08-22T01:03:01.718Z,17.62
2022-08-22T01:05:35.457Z,17.49
2022-08-22T01:08:08.230Z,17.49
2022-08-22T01:10:37.834Z,17.51
2022-08-22T01:13:04.346Z,17.52
2022-08-22T01:15:35.422Z,17.54
2022-08-22T01:18:04.676Z,17.58
2022-08-22T01:20:49.450Z,17.54
2022-08-22T01:23:34.782Z,17.54
2022-08-22T01:26:23.131Z,17.56
2022-08-22T01:29:11.415Z,17.54
2022-08-22T01:31:56.611Z,17.51
2022-08-22T01:34:47.081Z,17.48
2022-08-22T01:37:43.777Z,17.43
2022-08-22T01:40:31.993Z,17.48
2022-08-22T01:43:15.563Z,17.51
2022-08-22T01:45:53.207Z,17.55
2022-08-22T01:48:35.905Z,17.55
2022-08-22T01:51:37.453Z,17.51
2022-08-22T01:54:10.422Z,17.52
2022-08-22T01:56:43.350Z,17.54
2022-08-22T01:59:17.745Z,17.55
2022-08-22T02:01:51.645Z,17.51
2022-08-22T02:04:33.528Z,17.54
2022-08-22T02:07:06.657Z,17.53
2022-08-22T02:09:42.170Z,17.55
2022-08-22T02:12:31.495Z,17.54
2022-08-22T02:15:16.706Z,17.54
2022-08-22T02:18:05.069Z,17.50
2022-08-22T02:20:53.146Z,17.45
2022-08-22T02:23:28.050Z,17.42
2022-08-22T02:26:03.729Z,17.38
2022-08-22T02:28:58.162Z,17.38
2022-08-22T02:31:49.328Z,17.35
2022-08-22T02:34:49.002Z,17.39
2022-08-22T02:37:21.861Z,17.44
2022-08-22T02:40:05.028Z,17.45
2022-08-22T02:42:50.502Z,17.49
2022-08-22T02:45:26.282Z,17.50
2022-08-22T02:48:02.064Z,17.51
2022-08-22T02:50:37.908Z,17.50
2022-08-22T02:53:21.139Z,17.52
2022-08-22T02:56:39.459Z,17.56
2022-08-22T02:59:39.047Z,17.56
2022-08-22T03:02:27.778Z,17.55
2022-08-22T03:05:20.559Z,17.55
2022-08-22T03:08:03.619Z,17.52
2022-08-22T03:10:40.991Z,17.45
2022-08-22T03:13:36.476Z,17.44
2022-08-22T03:16:24.143Z,17.42
2022-08-22T03:19:06.177Z,17.41
2022-08-22T03:22:08.473Z,17.39
2022-08-22T03:25:03.875Z,17.33
2022-08-22T03:27:46.226Z,17.37
2022-08-22T03:30:36.227Z,17.38
2022-08-22T03:33:27.471Z,17.35
2022-08-22T03:36:26.684Z,17.39
2022-08-22T03:39:19.139Z,17.43
2022-08-22T03:42:09.983Z,17.45
2022-08-22T03:44:51.705Z,17.49
2022-08-22T03:47:40.978Z,17.50
2022-08-22T03:50:35.842Z,17.53
2022-08-22T03:53:22.434Z,17.55
2022-08-22T03:56:30.470Z,17.54
2022-08-22T03:59:21.250Z,17.45
2022-08-22T04:02:04.335Z,17.43
2022-08-22T04:05:27.023Z,17.48
2022-08-22T04:08:15.398Z,17.53
2022-08-22T04:11:09.453Z,17.54
2022-08-22T04:13:49.723Z,17.57
2022-08-22T04:16:22.258Z,17.67
2022-08-22T04:19:23.331Z,17.73
2022-08-22T04:21:58.795Z,17.79
2022-08-22T04:24:28.083Z,17.85
2022-08-22T04:27:05.943Z,17.91
2022-08-22T04:29:41.481Z,17.91
2022-08-22T04:32:14.102Z,17.91
2022-08-22T04:34:57.192Z,17.96
2022-08-22T04:37:36.075Z,18.01
2022-08-22T04:40:24.676Z,18.06
2022-08-22T04:43:00.436Z,18.06
2022-08-22T04:45:36.848Z,18.11
2022-08-22T04:48:18.700Z,18.09
2022-08-22T04:51:00.943Z,18.03
2022-08-22T04:53:46.227Z,18.06
2022-08-22T04:56:34.450Z,18.09
2022-08-22T04:59:07.771Z,18.08
2022-08-22T05:01:49.203Z,18.08
2022-08-22T05:04:26.598Z,18.09
2022-08-22T05:07:07.696Z,18.11
2022-08-22T05:09:38.904Z,18.11
2022-08-22T05:12:12.034Z,18.12
2022-08-22T05:14:43.133Z,18.17
2022-08-22T05:17:17.152Z,18.21
2022-08-22T05:19:50.726Z,18.28
2022-08-22T05:22:36.170Z,18.30
2022-08-22T05:25:09.551Z,18.35
2022-08-22T05:27:42.169Z,18.42
2022-08-22T05:30:15.806Z,18.46
2022-08-22T05:32:54.220Z,18.55
2022-08-22T05:35:34.391Z,18.49
2022-08-22T05:38:02.791Z,18.52
2022-08-22T05:40:31.642Z,18.50
2022-08-22T05:42:58.622Z,18.55
2022-08-22T05:45:28.396Z,18.60
2022-08-22T05:48:05.727Z,18.59
2022-08-22T05:50:43.271Z,18.59
2022-08-22T05:53:12.280Z,18.72
2022-08-22T05:55:39.010Z,18.81
2022-08-22T05:58:18.989Z,18.92
2022-08-22T06:00:50.277Z,19.00
2022-08-22T06:03:30.659Z,19.03
2022-08-22T06:06:01.978Z,19.11
2022-08-22T06:08:36.595Z,19.19
2022-08-22T06:11:12.290Z,19.26
2022-08-22T06:13:47.397Z,19.35
2022-08-22T06:16:17.545Z,19.47
2022-08-22T06:18:45.926Z,19.59
2022-08-22T06:21:20.992Z,19.69
2022-08-22T06:23:56.685Z,19.76
2022-08-22T06:26:25.527Z,19.84
2022-08-22T06:28:55.974Z,19.94
2022-08-22T06:31:44.938Z,20.06
2022-08-22T06:34:11.397Z,20.16
2022-08-22T06:36:41.081Z,20.20
2022-08-22T06:39:10.609Z,20.26
2022-08-22T06:41:47.505Z,20.32
2022-08-22T06:44:18.314Z,20.42
2022-08-22T06:46:47.674Z,20.46
2022-08-22T06:49:15.773Z,20.56
2022-08-22T06:51:44.098Z,20.59
2022-08-22T06:54:19.118Z,20.68
2022-08-22T06:56:49.080Z,20.78
2022-08-22T06:59:22.592Z,20.90
2022-08-22T07:01:58.307Z,20.94
2022-08-22T07:04:27.045Z,21.09
2022-08-22T07:06:56.470Z,21.17
2022-08-22T07:09:26.826Z,21.27
2022-08-22T07:11:56.794Z,21.32
2022-08-22T07:14:39.557Z,21.35
2022-08-22T07:17:09.326Z,21.37
2022-08-22T07:19:39.915Z,21.38
2022-08-22T07:22:17.288Z,21.42
2022-08-22T07:24:50.701Z,21.44
2022-08-22T07:27:38.602Z,21.54
2022-08-22T07:30:10.150Z,21.55
2022-08-22T07:33:21.037Z,21.61
2022-08-22T07:35:55.219Z,21.74
2022-08-22T07:38:33.159Z,21.81
2022-08-22T07:41:10.902Z,21.88
2022-08-22T07:43:43.364Z,21.95
2022-08-22T07:46:21.230Z,22.06
2022-08-22T07:49:13.552Z,22.09
2022-08-22T07:51:42.931Z,22.11
2022-08-22T07:54:14.251Z,22.12
2022-08-22T07:56:46.505Z,22.12
2022-08-22T07:59:17.225Z,22.15
2022-08-22T08:01:46.806Z,22.10
2022-08-22T08:04:19.610Z,22.08
2022-08-22T08:06:52.683Z,22.07
2022-08-22T08:09:20.984Z,22.03
2022-08-22T08:11:51.502Z,22.07
2022-08-22T08:14:20.663Z,21.99
2022-08-22T08:17:18.030Z,22.05
2022-08-22T08:19:47.208Z,22.08
2022-08-22T08:22:20.395Z,22.09
2022-08-22T08:24:49.511Z,22.10
2022-08-22T08:27:51.468Z,22.05
2022-08-22T08:30:43.256Z,22.17
2022-08-22T08:33:26.144Z,22.27
2022-08-22T08:36:27.687Z,22.45
2022-08-22T08:39:12.496Z,22.59
2022-08-22T08:41:51.269Z,22.66
2022-08-22T08:44:17.699Z,22.71
2022-08-22T08:47:19.601Z,22.75
2022-08-22T08:50:26.594Z,22.89
2022-08-22T08:53:01.958Z,22.98
2022-08-22T08:56:00.571Z,23.03
2022-08-22T08:59:10.120Z,23.07
2022-08-22T09:05:35.480Z,23.14
2022-08-22T09:08:42.239Z,23.15
2022-08-22T09:11:50.563Z,23.12
2022-08-22T09:14:22.836Z,23.14
2022-08-22T09:17:17.366Z,23.16
2022-08-22T09:20:17.693Z,23.23
2022-08-22T09:25:42.339Z,23.41
2022-08-22T09:28:11.833Z,23.45
2022-08-22T09:34:13.731Z,23.62
2022-08-22T09:37:26.027Z,23.62
2022-08-22T09:40:15.634Z,23.56
2022-08-22T09:40:16.579Z,23.10
2022-08-22T09:40:17.080Z,23.59
2022-08-22T09:42:54.085Z,23.63
2022-08-22T09:45:40.541Z,23.70
2022-08-22T09:48:21.523Z,23.78
2022-08-22T09:51:28.702Z,23.86
2022-08-22T09:54:02.943Z,23.90
2022-08-22T09:57:00.784Z,23.92
2022-08-22T09:59:54.982Z,23.89
2022-08-22T10:02:43.630Z,23.90
2022-08-22T10:05:40.325Z,23.88
2022-08-22T10:08:14.656Z,23.86
2022-08-22T10:10:55.156Z,23.92
2022-08-22T10:13:37.519Z,24.01
2022-08-22T10:16:13.140Z,24.11
2022-08-22T10:18:52.878Z,24.15
2022-08-22T10:21:47.337Z,24.27
2022-08-22T10:24:44.802Z,24.38
2022-08-22T10:27:34.907Z,24.52
2022-08-22T10:30:13.359Z,24.68
2022-08-22T10:33:20.410Z,24.83
2022-08-22T10:36:04.777Z,25.02
2022-08-22T10:38:36.147Z,25.13
2022-08-22T10:41:36.072Z,25.30
2022-08-22T10:44:17.555Z,25.51
2022-08-22T10:46:56.099Z,25.67
2022-08-22T10:49:37.586Z,25.88
2022-08-22T10:52:14.858Z,26.13
2022-08-22T10:54:49.415Z,26.32
2022-08-22T10:57:35.518Z,26.39
2022-08-22T11:00:13.258Z,26.41
2022-08-22T11:02:53.138Z,26.58
2022-08-22T11:05:40.795Z,26.87
2022-08-22T11:08:28.686Z,27.05
2022-08-22T11:10:58.532Z,27.10
2022-08-22T11:13:26.596Z,27.13
2022-08-22T11:16:08.118Z,27.06
2022-08-22T11:18:40.907Z,26.91
2022-08-22T11:21:42.870Z,26.67
2022-08-22T11:24:34.927Z,26.45
2022-08-22T11:27:20.862Z,26.36
2022-08-22T11:30:18.228Z,26.26
2022-08-22T11:33:04.663Z,26.31
2022-08-22T11:36:09.291Z,26.25
2022-08-22T11:38:59.174Z,26.39
2022-08-22T11:41:53.150Z,26.59
2022-08-22T11:44:50.722Z,26.72
2022-08-22T11:47:22.962Z,26.70
2022-08-22T11:50:02.924Z,26.65
2022-08-22T11:52:51.798Z,26.53
2022-08-22T11:55:34.536Z,26.64
2022-08-22T11:58:40.808Z,26.65
2022-08-22T12:01:17.504Z,26.61
2022-08-22T12:03:58.627Z,26.65
2022-08-22T12:06:50.678Z,26.93
2022-08-22T12:09:50.809Z,27.06
2022-08-22T12:12:37.790Z,27.23
2022-08-22T12:15:25.670Z,27.53
2022-08-22T12:18:21.343Z,27.80
2022-08-22T12:21:03.732Z,28.11
2022-08-22T12:23:48.588Z,28.10
2022-08-22T12:26:25.137Z,28.14
2022-08-22T12:29:01.589Z,27.71
2022-08-22T12:31:41.427Z,27.57
2022-08-22T12:34:14.107Z,27.20
2022-08-22T12:36:56.015Z,26.97
2022-08-22T12:39:52.152Z,26.65
2022-08-22T12:42:21.410Z,26.69
2022-08-22T12:45:25.619Z,26.46
2022-08-22T12:48:13.915Z,26.27
2022-08-22T12:50:47.670Z,26.34
2022-08-22T12:53:26.595Z,26.33
2022-08-22T12:56:16.693Z,26.35
2022-08-22T12:58:51.538Z,26.31
2022-08-22T13:01:19.209Z,26.13
2022-08-22T13:04:04.226Z,25.77
2022-08-22T13:06:33.495Z,25.56
2022-08-22T13:09:01.422Z,25.30
2022-08-22T13:11:36.112Z,25.17
2022-08-22T13:14:03.823Z,25.35
2022-08-22T13:16:48.815Z,25.35
2022-08-22T13:19:22.243Z,25.72
2022-08-22T13:21:57.986Z,25.97
2022-08-22T13:24:52.574Z,26.36
2022-08-22T13:27:35.121Z,26.18
2022-08-22T13:30:16.687Z,26.46
2022-08-22T13:32:53.694Z,26.82
2022-08-22T13:35:35.672Z,27.02
2022-08-22T13:38:12.122Z,27.03
2022-08-22T13:40:44.021Z,26.99
2022-08-22T13:43:14.162Z,26.79
2022-08-22T13:45:49.292Z,26.97
2022-08-22T13:48:15.959Z,26.89
2022-08-22T13:51:08.136Z,26.61
2022-08-22T13:53:49.864Z,26.25
2022-08-22T13:56:35.467Z,25.91
2022-08-22T13:59:06.439Z,25.89
2022-08-22T14:01:42.085Z,25.87
2022-08-22T14:04:35.720Z,25.75
2022-08-22T14:07:04.477Z,25.84
2022-08-22T14:09:43.020Z,25.87
2022-08-22T14:12:18.704Z,25.71
2022-08-22T14:14:54.990Z,25.57
2022-08-22T14:17:29.675Z,25.33
2022-08-22T14:20:11.155Z,25.11
2022-08-22T14:22:41.455Z,25.12
2022-08-22T14:25:21.401Z,25.04
2022-08-22T14:27:52.535Z,24.90
2022-08-22T14:30:26.411Z,24.70
2022-08-22T14:32:55.759Z,24.69
2022-08-22T14:35:35.241Z,24.56
2022-08-22T14:38:30.079Z,24.45
2022-08-22T14:41:07.101Z,24.48
2022-08-22T14:43:33.570Z,24.37
2022-08-22T14:46:08.674Z,24.22
2022-08-22T14:48:50.422Z,24.03
2022-08-22T14:51:25.513Z,23.74
2022-08-22T14:53:52.985Z,23.73
2022-08-22T14:56:24.628Z,23.68
2022-08-22T14:58:58.133Z,23.59
2022-08-22T15:01:29.991Z,23.38
2022-08-22T15:04:05.819Z,23.62
2022-08-22T15:06:47.862Z,23.59
2022-08-22T15:09:36.706Z,23.47
2022-08-22T15:12:31.289Z,23.38
2022-08-22T15:15:10.131Z,23.26
2022-08-22T15:17:50.761Z,23.09
2022-08-22T15:20:35.259Z,22.86
2022-08-22T15:23:23.348Z,22.82
2022-08-22T15:26:03.657Z,22.77
2022-08-22T15:28:52.343Z,22.73
2022-08-22T15:31:20.082Z,22.82
2022-08-22T15:33:47.770Z,22.78
2022-08-22T15:36:21.802Z,22.61
2022-08-22T15:38:49.745Z,22.52
2022-08-22T15:41:25.234Z,22.38
2022-08-22T15:44:30.870Z,22.25
2022-08-22T15:47:04.624Z,22.20
2022-08-22T15:49:37.058Z,22.10
2022-08-22T15:52:04.095Z,22.09
2022-08-22T15:54:46.938Z,22.05
2022-08-22T15:57:31.874Z,21.95
2022-08-22T16:00:02.618Z,21.94
2022-08-22T16:02:35.098Z,21.96
2022-08-22T16:05:07.967Z,21.92
2022-08-22T16:07:36.386Z,21.87
2022-08-22T16:10:09.947Z,21.74
2022-08-22T16:12:40.894Z,21.75
2022-08-22T16:15:45.833Z,21.77
2022-08-22T16:18:31.200Z,21.70
2022-08-22T16:20:58.041Z,21.77
2022-08-22T16:23:24.976Z,21.75
2022-08-22T16:25:52.675Z,21.77
2022-08-22T16:28:56.155Z,21.70
2022-08-22T16:31:56.750Z,21.56
2022-08-22T16:34:27.211Z,21.45
2022-08-22T16:37:02.822Z,21.33
2022-08-22T16:39:36.203Z,21.32
2022-08-22T16:42:15.082Z,21.23
2022-08-22T16:45:05.122Z,21.10
2022-08-22T16:47:40.730Z,21.10
2022-08-22T16:50:24.872Z,21.11
2022-08-22T16:52:54.459Z,20.93
2022-08-22T16:55:30.222Z,20.89
2022-08-22T16:58:15.468Z,20.82
2022-08-22T17:00:58.788Z,20.92
2022-08-22T17:03:37.486Z,20.99
2022-08-22T17:06:33.233Z,20.87
2022-08-22T17:09:37.030Z,20.84
2022-08-22T17:12:17.427Z,20.77
2022-08-22T17:15:02.806Z,20.84
2022-08-22T17:18:12.236Z,20.89
2022-08-22T17:21:12.746Z,20.94
2022-08-22T17:23:52.154Z,21.01
2022-08-22T17:26:39.004Z,20.99
2022-08-22T17:29:27.167Z,20.95
2022-08-22T17:32:05.907Z,20.85
2022-08-22T17:34:39.102Z,20.79
2022-08-22T17:37:33.256Z,20.88
2022-08-22T17:40:11.530Z,20.92
2022-08-22T17:42:40.768Z,20.67
2022-08-22T17:45:13.415Z,20.56
2022-08-22T17:47:45.955Z,20.50
2022-08-22T17:50:51.542Z,20.56
2022-08-22T17:53:43.181Z,20.53
2022-08-22T17:56:20.612Z,20.56
2022-08-22T17:59:20.677Z,20.62
2022-08-22T18:02:10.517Z,20.61
2022-08-22T18:05:02.110Z,20.68
2022-08-22T18:07:54.827Z,20.72
2022-08-22T18:11:03.036Z,20.72
2022-08-22T18:14:05.207Z,20.66
2022-08-22T18:16:43.088Z,20.57
2022-08-22T18:19:37.552Z,20.60
2022-08-22T18:22:24.454Z,20.56
2022-08-22T18:25:08.358Z,20.51
2022-08-22T18:28:16.293Z,20.50
2022-08-22T18:31:02.059Z,20.48
2022-08-22T18:33:49.074Z,20.51
2022-08-22T18:36:23.528Z,20.49
2022-08-22T18:38:59.531Z,20.47
2022-08-22T18:41:37.322Z,20.38
2022-08-22T18:44:21.476Z,20.36
2022-08-22T18:46:52.778Z,20.25
2022-08-22T18:49:21.984Z,20.23
2022-08-22T18:52:13.745Z,20.23
2022-08-22T18:54:55.136Z,20.28
2022-08-22T18:57:34.856Z,20.26
2022-08-22T19:00:17.183Z,20.30
2022-08-22T19:02:51.130Z,20.31
2022-08-22T19:05:38.102Z,20.20
2022-08-22T19:08:53.525Z,20.21
2022-08-22T19:11:49.035Z,20.21
2022-08-22T19:14:37.304Z,20.23
2022-08-22T19:17:03.778Z,20.17
2022-08-22T19:20:21.231Z,20.08
2022-08-22T19:22:51.039Z,20.05
2022-08-22T19:25:28.388Z,19.99
2022-08-22T19:28:10.210Z,20.02
2022-08-22T19:30:44.192Z,19.99
2022-08-22T19:33:34.332Z,19.96
2022-08-22T19:36:09.178Z,20.01
2022-08-22T19:38:50.744Z,20.02
2022-08-22T19:41:40.588Z,19.91
2022-08-22T19:44:13.432Z,19.88
2022-08-22T19:46:42.280Z,19.90
2022-08-22T19:49:27.722Z,19.91
2022-08-22T19:52:15.930Z,19.83
2022-08-22T19:54:46.964Z,19.83
2022-08-22T19:57:34.186Z,19.88
2022-08-22T20:00:12.727Z,19.91
2022-08-22T20:02:42.311Z,19.90
2022-08-22T20:05:29.765Z,19.88
2022-08-22T20:07:56.253Z,19.90
2022-08-22T20:10:28.130Z,19.88
2022-08-22T20:13:05.080Z,19.90
2022-08-22T20:15:36.089Z,19.90
2022-08-22T20:18:12.483Z,19.90
2022-08-22T20:20:59.406Z,19.96
2022-08-22T20:23:31.607Z,19.96
2022-08-22T20:25:59.657Z,19.93
2022-08-22T20:28:44.365Z,19.89
2022-08-22T20:31:19.559Z,19.86
2022-08-22T20:33:47.065Z,19.73
2022-08-22T20:36:28.292Z,19.70
2022-08-22T20:39:02.955Z,19.70
2022-08-22T20:41:39.014Z,19.69
2022-08-22T20:44:15.842Z,19.70
2022-08-22T20:47:06.333Z,19.72
2022-08-22T20:49:42.056Z,19.76
2022-08-22T20:52:20.574Z,19.82
2022-08-22T20:54:58.050Z,19.74
2022-08-22T20:57:24.749Z,19.63
2022-08-22T21:00:08.932Z,19.58
2022-08-22T21:02:44.214Z,19.62
2022-08-22T21:05:13.805Z,19.63
2022-08-22T21:07:45.923Z,19.67
2022-08-22T21:10:39.497Z,19.68
2022-08-22T21:13:23.501Z,19.70
2022-08-22T21:16:18.330Z,19.70
2022-08-22T21:18:51.991Z,19.61
2022-08-22T21:21:32.826Z,19.58
2022-08-22T21:24:03.453Z,19.51
2022-08-22T21:26:29.925Z,19.42
2022-08-22T21:29:10.348Z,19.38
2022-08-22T21:32:04.305Z,19.38
2022-08-22T21:34:42.515Z,19.34
2022-08-22T21:37:31.758Z,19.34
2022-08-22T21:40:05.744Z,19.33
2022-08-22T21:42:36.535Z,19.33
2022-08-22T21:45:07.969Z,19.29
2022-08-22T21:47:40.411Z,19.21
2022-08-22T21:50:13.051Z,19.22
2022-08-22T21:52:44.205Z,19.18
2022-08-22T21:55:30.420Z,19.19
2022-08-22T21:58:36.288Z,19.17
2022-08-22T22:01:27.549Z,19.05
2022-08-22T22:03:55.229Z,19.04
2022-08-22T22:06:21.744Z,19.08
2022-08-22T22:08:48.943Z,19.13
2022-08-22T22:11:16.478Z,19.14
2022-08-22T22:13:44.247Z,19.12
2022-08-22T22:16:14.737Z,19.11
2022-08-22T22:18:41.336Z,19.05
2022-08-22T22:21:08.711Z,19.03
2022-08-22T22:23:35.437Z,19.00
2022-08-22T22:26:04.792Z,19.00
2022-08-22T22:28:38.546Z,18.94
2022-08-22T22:31:06.425Z,18.96
2022-08-22T22:33:37.818Z,18.89
2022-08-22T22:36:18.611Z,18.87
2022-08-22T22:38:47.386Z,18.83
2022-08-22T22:41:14.040Z,18.79
2022-08-22T22:43:41.969Z,18.76
2022-08-22T22:46:08.725Z,18.79
2022-08-22T22:48:35.303Z,18.79
2022-08-22T22:51:09.675Z,18.79
2022-08-22T22:53:40.467Z,18.72
2022-08-22T22:56:13.622Z,18.67
2022-08-22T22:58:40.899Z,18.62
2022-08-22T23:01:13.115Z,18.63
2022-08-22T23:03:39.917Z,18.59
2022-08-22T23:06:14.381Z,18.52
2022-08-22T23:08:41.106Z,18.53
2022-08-22T23:11:14.613Z,18.45
2022-08-22T23:13:42.801Z,18.46
2022-08-22T23:16:13.382Z,18.40
2022-08-22T23:18:41.252Z,18.41
2022-08-22T23:21:20.718Z,18.40
2022-08-22T23:23:48.966Z,18.36
2022-08-22T23:26:16.781Z,18.38
2022-08-22T23:28:43.817Z,18.41
2022-08-22T23:31:13.491Z,18.44
2022-08-22T23:33:40.497Z,18.41
2022-08-22T23:36:17.439Z,18.37
2022-08-22T23:38:45.033Z,18.38
2022-08-22T23:41:13.515Z,18.35
2022-08-22T23:43:45.612Z,18.37
2022-08-22T23:46:13.939Z,18.38
2022-08-22T23:48:40.813Z,18.36
2022-08-22T23:51:07.598Z,18.38
2022-08-22T23:53:34.450Z,18.44
2022-08-22T23:56:19.895Z,18.46
2022-08-22T23:58:48.968Z,18.47
